Time;durP1;ratioP1;P1;durP2;ratioP2;P2;SDS_P1;SDS_P2;PMS_P1;PMS_P2;Temp;Humidity;BMP_temperature;BMP_pressure;BME280_temperature;BME280_humidity;BME280_pressure;Samples;Min_cycle;Max_cycle;Signal;HPM_P1;HPM_P2
2023/07/20 00:02:05;;;;;;;1.37;1.17;;;19.20;98.20;;;;;;5039879;28;20466;-86
2023/07/20 00:04:31;;;;;;;1.30;0.90;;;19.20;97.70;;;;;;5039815;28;20798;-86
2023/07/20 00:06:58;;;;;;;0.93;0.90;;;19.10;97.70;;;;;;5039663;28;20462;-86
2023/07/20 00:09:25;;;;;;;1.17;0.83;;;19.10;97.40;;;;;;5039929;28;20520;-85
2023/07/20 00:11:54;;;;;;;0.70;0.70;;;19.00;97.60;;;;;;5039512;28;20523;-85
2023/07/20 00:14:21;;;;;;;0.90;0.90;;;19.00;97.60;;;;;;5039625;28;20454;-86
2023/07/20 00:16:55;;;;;;;0.83;0.80;;;19.00;97.30;;;;;;5039663;28;20450;-85
2023/07/20 00:19:22;;;;;;;1.50;0.97;;;18.90;97.50;;;;;;5039591;28;20969;-85
2023/07/20 00:21:49;;;;;;;0.80;0.63;;;18.90;97.40;;;;;;5036310;28;20455;-85
2023/07/20 00:24:16;;;;;;;0.80;0.80;;;18.90;97.40;;;;;;5036242;28;20447;-84
2023/07/20 00:26:43;;;;;;;2.30;0.80;;;18.80;96.90;;;;;;5036410;28;20490;-86
2023/07/20 00:29:11;;;;;;;1.20;1.10;;;18.80;96.70;;;;;;5036537;28;20443;-86
2023/07/20 00:31:38;;;;;;;2.77;1.07;;;18.80;96.90;;;;;;5036124;28;20474;-86
2023/07/20 00:34:05;;;;;;;3.13;1.07;;;18.70;97.00;;;;;;5036179;28;20942;-86
2023/07/20 00:36:32;;;;;;;0.80;0.80;;;18.70;97.30;;;;;;5036724;28;20455;-86
2023/07/20 00:38:59;;;;;;;1.00;0.60;;;18.70;97.10;;;;;;5036379;28;20543;-86
2023/07/20 00:41:29;;;;;;;1.33;0.80;;;18.70;97.30;;;;;;5035974;28;20476;-86
2023/07/20 00:43:55;;;;;;;0.83;0.57;;;18.70;96.90;;;;;;5036420;28;20457;-86
2023/07/20 00:46:25;;;;;;;0.80;0.80;;;18.60;96.60;;;;;;5036047;28;20450;-86
2023/07/20 00:48:53;;;;;;;6.97;0.97;;;18.60;96.30;;;;;;5035885;28;20455;-85
2023/07/20 00:51:20;;;;;;;4.57;0.87;;;18.60;96.70;;;;;;5035958;28;20546;-86
2023/07/20 00:53:47;;;;;;;1.43;0.97;;;18.60;96.80;;;;;;5035804;28;20450;-86
2023/07/20 00:56:15;;;;;;;0.97;0.93;;;18.60;96.80;;;;;;5035911;28;20461;-86
2023/07/20 00:58:42;;;;;;;0.90;0.80;;;18.50;96.80;;;;;;5035478;28;20443;-86
2023/07/20 01:01:09;;;;;;;2.30;0.90;;;18.50;96.60;;;;;;5035684;28;20545;-86
2023/07/20 01:03:37;;;;;;;3.17;1.20;;;18.50;96.40;;;;;;5035557;28;20447;-85
2023/07/20 01:06:15;;;;;;;0.90;0.83;;;18.50;96.90;;;;;;5035895;28;20458;-86
2023/07/20 01:08:47;;;;;;;4.70;0.80;;;18.40;96.90;;;;;;5035596;28;20439;-85
2023/07/20 01:11:21;;;;;;;0.80;0.80;;;18.40;96.80;;;;;;5035391;28;20816;-86
2023/07/20 01:13:48;;;;;;;1.20;0.80;;;18.30;96.90;;;;;;5035426;28;20530;-85
2023/07/20 01:16:14;;;;;;;0.70;0.70;;;18.30;96.70;;;;;;5035207;28;20431;-85
2023/07/20 01:18:43;;;;;;;1.00;0.63;;;18.30;96.70;;;;;;5035517;28;20449;-86
2023/07/20 01:21:21;;;;;;;0.70;0.70;;;18.20;97.00;;;;;;5034970;28;20491;-85
2023/07/20 01:24:25;;;;;;;1.50;0.70;;;18.20;96.70;;;;;;5035165;28;20993;-85
2023/07/20 01:27:13;;;;;;;0.97;0.70;;;18.20;97.10;;;;;;5032948;28;20989;-85
2023/07/20 01:30:04;;;;;;;0.77;0.60;;;18.20;97.20;;;;;;5034919;28;20797;-86
2023/07/20 01:32:32;;;;;;;1.37;0.70;;;18.10;97.10;;;;;;5034156;28;20439;-85
2023/07/20 01:35:00;;;;;;;1.63;1.10;;;18.20;97.30;;;;;;5034476;28;20453;-86
2023/07/20 01:37:29;;;;;;;1.10;0.63;;;18.10;97.70;;;;;;5034799;28;20462;-86
2023/07/20 01:39:57;;;;;;;1.33;0.93;;;18.10;97.30;;;;;;5034756;28;20513;-85
2023/07/20 01:42:24;;;;;;;0.97;0.70;;;18.10;97.50;;;;;;5035339;28;20971;-85
2023/07/20 01:44:52;;;;;;;2.00;0.90;;;18.10;97.70;;;;;;5035598;28;20493;-84
2023/07/20 01:47:19;;;;;;;0.90;0.70;;;18.00;97.80;;;;;;5035058;28;20438;-84
2023/07/20 01:49:47;;;;;;;1.53;0.90;;;18.00;98.00;;;;;;5034932;28;20449;-85
2023/07/20 01:52:15;;;;;;;0.80;0.80;;;17.90;98.10;;;;;;5034594;28;20537;-85
2023/07/20 01:54:41;;;;;;;2.30;0.80;;;17.90;98.10;;;;;;5036042;28;20447;-84
2023/07/20 01:57:08;;;;;;;1.23;0.80;;;17.90;98.30;;;;;;5036371;28;20465;-84
2023/07/20 01:59:35;;;;;;;0.63;0.60;;;17.90;98.40;;;;;;5036124;28;20502;-84
2023/07/20 02:02:02;;;;;;;0.70;0.60;;;17.80;98.30;;;;;;5036947;28;20470;-85
2023/07/20 02:04:29;;;;;;;1.73;0.80;;;17.80;98.60;;;;;;5035769;28;20450;-85
2023/07/20 02:06:57;;;;;;;7.63;1.30;;;17.80;98.50;;;;;;5034440;28;20530;-85
2023/07/20 02:09:24;;;;;;;1.63;1.20;;;17.80;98.40;;;;;;5034101;28;20439;-86
2023/07/20 02:11:51;;;;;;;0.53;0.53;;;17.70;98.70;;;;;;5034169;28;20459;-85
2023/07/20 02:14:17;;;;;;;2.33;1.33;;;17.80;98.70;;;;;;5034349;28;20804;-85
2023/07/20 02:16:44;;;;;;;0.50;0.50;;;17.70;98.90;;;;;;5033887;28;20465;-85
2023/07/20 02:19:11;;;;;;;2.00;0.93;;;17.70;99.00;;;;;;5034059;28;20458;-85
2023/07/20 02:21:38;;;;;;;0.83;0.70;;;17.70;98.80;;;;;;5034033;28;20832;-86
2023/07/20 02:24:07;;;;;;;1.00;0.70;;;17.70;99.30;;;;;;5034086;28;20450;-85
2023/07/20 02:26:33;;;;;;;2.60;1.07;;;17.60;99.20;;;;;;5033787;28;21006;-85
2023/07/20 02:29:00;;;;;;;0.70;0.70;;;17.60;99.20;;;;;;5034258;28;20450;-86
2023/07/20 02:31:27;;;;;;;1.43;1.30;;;17.60;99.20;;;;;;5033537;28;20466;-85
2023/07/20 02:33:53;;;;;;;1.33;0.80;;;17.60;99.40;;;;;;5033718;28;20431;-85
2023/07/20 02:36:20;;;;;;;1.87;0.80;;;17.60;99.10;;;;;;5033939;28;20816;-85
2023/07/20 02:38:47;;;;;;;2.30;0.70;;;17.50;99.60;;;;;;5033659;28;20957;-86
2023/07/20 02:41:15;;;;;;;1.10;0.90;;;17.60;99.90;;;;;;5033666;28;20497;-85
2023/07/20 02:43:42;;;;;;;2.73;0.90;;;17.60;99.90;;;;;;5033491;28;20481;-85
2023/07/20 02:46:09;;;;;;;0.80;0.80;;;17.50;99.80;;;;;;5034606;28;20461;-85
2023/07/20 02:48:35;;;;;;;0.90;0.50;;;17.50;99.90;;;;;;5033698;28;20431;-85
2023/07/20 02:51:02;;;;;;;7.73;0.80;;;17.50;99.90;;;;;;5033515;28;20809;-85
2023/07/20 02:53:29;;;;;;;1.37;0.90;;;17.50;99.90;;;;;;5033721;28;20457;-85
2023/07/20 02:55:56;;;;;;;1.47;1.03;;;17.50;99.90;;;;;;5033597;28;20449;-85
2023/07/20 02:58:24;;;;;;;2.40;0.63;;;17.50;99.90;;;;;;5033426;28;20772;-85
2023/07/20 03:00:51;;;;;;;0.90;0.57;;;17.50;99.90;;;;;;5033391;28;20487;-85
2023/07/20 03:03:17;;;;;;;0.50;0.50;;;17.50;99.90;;;;;;5033413;28;20451;-85
2023/07/20 03:05:44;;;;;;;1.27;0.70;;;17.40;99.90;;;;;;5033460;28;20447;-85
2023/07/20 03:08:11;;;;;;;0.90;0.70;;;17.40;99.90;;;;;;5033505;28;20446;-85
2023/07/20 03:10:41;;;;;;;1.47;0.93;;;17.40;99.90;;;;;;5033494;28;20463;-86
2023/07/20 03:13:08;;;;;;;0.70;0.70;;;17.40;99.90;;;;;;5033503;28;20443;-85
2023/07/20 03:15:36;;;;;;;0.90;0.77;;;17.40;99.90;;;;;;5033000;28;20451;-85
2023/07/20 03:18:04;;;;;;;1.20;1.10;;;17.30;99.90;;;;;;5033066;28;20435;-85
2023/07/20 03:20:31;;;;;;;0.83;0.60;;;17.30;99.90;;;;;;5033150;28;20565;-85
2023/07/20 03:22:58;;;;;;;0.83;0.60;;;17.30;99.90;;;;;;5033297;28;20446;-85
2023/07/20 03:25:25;;;;;;;0.60;0.60;;;17.20;99.90;;;;;;5033309;28;20475;-85
2023/07/20 03:27:51;;;;;;;0.90;0.70;;;17.20;99.90;;;;;;5032894;28;20946;-85
2023/07/20 03:30:18;;;;;;;1.53;0.87;;;17.20;99.90;;;;;;5033184;28;20470;-85
2023/07/20 03:32:46;;;;;;;0.80;0.80;;;17.20;99.90;;;;;;5033234;28;20449;-85
2023/07/20 03:35:15;;;;;;;1.30;0.83;;;17.20;99.90;;;;;;5033262;28;20451;-85
2023/07/20 03:37:43;;;;;;;1.77;0.80;;;17.20;99.90;;;;;;5033193;28;20466;-85
2023/07/20 03:40:10;;;;;;;1.00;0.90;;;17.20;99.90;;;;;;5033089;28;20494;-85
2023/07/20 03:42:38;;;;;;;0.87;0.60;;;17.20;99.90;;;;;;5032851;28;20450;-85
2023/07/20 03:45:06;;;;;;;1.47;0.80;;;17.10;99.90;;;;;;5033839;28;21005;-86
2023/07/20 03:47:33;;;;;;;0.57;0.57;;;17.10;99.90;;;;;;5033294;28;20448;-86
2023/07/20 03:50:01;;;;;;;1.40;1.00;;;17.10;99.90;;;;;;5032761;28;20451;-85
2023/07/20 03:52:27;;;;;;;0.60;0.60;;;17.00;99.90;;;;;;5033076;28;20455;-86
2023/07/20 03:54:54;;;;;;;1.23;1.03;;;17.00;99.90;;;;;;5033009;28;20817;-85
2023/07/20 03:57:21;;;;;;;3.47;1.00;;;17.00;99.90;;;;;;5035903;28;20446;-85
2023/07/20 03:59:49;;;;;;;1.13;0.60;;;16.90;99.90;;;;;;5036514;28;20450;-85
2023/07/20 04:02:16;;;;;;;1.30;1.20;;;17.00;99.90;;;;;;5036675;28;20467;-85
2023/07/20 04:04:43;;;;;;;1.50;0.97;;;17.00;99.90;;;;;;5036718;28;20798;-85
2023/07/20 04:07:11;;;;;;;0.70;0.67;;;17.00;99.90;;;;;;5036764;28;20500;-85
2023/07/20 04:09:38;;;;;;;0.87;0.70;;;16.90;99.90;;;;;;5036778;28;20457;-85
2023/07/20 04:12:05;;;;;;;0.87;0.87;;;16.70;99.90;;;;;;5036433;28;20469;-85
2023/07/20 04:14:32;;;;;;;1.77;1.10;;;16.80;99.90;;;;;;5036537;28;20430;-85
2023/07/20 04:17:00;;;;;;;0.80;0.70;;;16.90;99.90;;;;;;5036499;28;20461;-85
2023/07/20 04:19:27;;;;;;;1.07;0.97;;;17.00;99.90;;;;;;5036534;28;20461;-86
2023/07/20 04:21:53;;;;;;;0.60;0.60;;;17.10;99.90;;;;;;5036538;28;20486;-85
2023/07/20 04:24:21;;;;;;;1.47;0.60;;;17.10;99.90;;;;;;5036455;28;20450;-85
2023/07/20 04:26:48;;;;;;;1.20;0.90;;;17.20;99.90;;;;;;5035906;28;20482;-86
2023/07/20 04:29:15;;;;;;;0.93;0.90;;;17.20;99.90;;;;;;5036475;28;20454;-86
2023/07/20 04:31:42;;;;;;;1.47;1.00;;;17.00;99.90;;;;;;5036143;28;20466;-86
2023/07/20 04:34:08;;;;;;;5.07;1.10;;;17.00;99.90;;;;;;5036224;28;20813;-86
2023/07/20 04:36:35;;;;;;;0.70;0.70;;;17.10;99.90;;;;;;5036168;28;20554;-86
2023/07/20 04:39:03;;;;;;;1.90;0.70;;;17.30;99.90;;;;;;5035933;28;20958;-86
2023/07/20 04:41:31;;;;;;;0.93;0.83;;;17.40;99.90;;;;;;5035820;28;20992;-86
2023/07/20 04:43:57;;;;;;;0.93;0.93;;;17.50;99.90;;;;;;5035969;28;20939;-86
2023/07/20 04:46:24;;;;;;;1.90;0.97;;;17.50;99.90;;;;;;5035618;28;20450;-85
2023/07/20 04:48:51;;;;;;;1.10;0.70;;;17.60;99.90;;;;;;5035880;28;20462;-85
2023/07/20 04:51:20;;;;;;;1.70;1.10;;;17.60;99.90;;;;;;5035440;28;20970;-85
2023/07/20 04:53:47;;;;;;;1.67;0.93;;;17.70;99.90;;;;;;5035811;28;20461;-86
2023/07/20 04:56:14;;;;;;;2.20;1.00;;;17.70;99.90;;;;;;5035562;28;20441;-86
2023/07/20 04:58:42;;;;;;;5.93;0.87;;;17.60;99.90;;;;;;5035772;28;20462;-86
2023/07/20 05:01:09;;;;;;;3.50;0.90;;;17.60;99.90;;;;;;5035506;28;20493;-85
2023/07/20 05:03:36;;;;;;;0.60;0.60;;;17.60;99.90;;;;;;5035626;28;20541;-86
2023/07/20 05:06:02;;;;;;;1.13;1.03;;;17.70;99.90;;;;;;5035571;28;20455;-86
2023/07/20 05:08:29;;;;;;;0.40;0.40;;;17.70;99.90;;;;;;5035211;28;20459;-85
2023/07/20 05:10:56;;;;;;;1.50;0.77;;;17.70;99.90;;;;;;5035318;28;20471;-85
2023/07/20 05:13:23;;;;;;;1.00;0.90;;;17.80;99.90;;;;;;5035368;28;20458;-85
2023/07/20 05:15:54;;;;;;;0.70;0.60;;;17.80;99.90;;;;;;5035417;28;20529;-86
2023/07/20 05:18:21;;;;;;;9.60;1.13;;;17.80;99.90;;;;;;5035322;28;20961;-85
2023/07/20 05:20:48;;;;;;;1.53;1.10;;;17.80;99.90;;;;;;5034920;28;21112;-85
2023/07/20 05:23:15;;;;;;;2.00;0.70;;;17.90;99.90;;;;;;5035314;28;20458;-85
2023/07/20 05:25:41;;;;;;;1.80;0.70;;;17.90;99.90;;;;;;5034921;28;20493;-85
2023/07/20 05:28:08;;;;;;;1.47;1.17;;;18.00;99.90;;;;;;5035430;28;20443;-85
2023/07/20 05:30:37;;;;;;;0.87;0.70;;;18.00;99.90;;;;;;5035031;28;20466;-85
2023/07/20 05:33:05;;;;;;;1.07;0.87;;;18.10;99.90;;;;;;5035041;28;20454;-85
2023/07/20 05:35:32;;;;;;;1.00;0.80;;;18.10;99.90;;;;;;5035088;28;20942;-86
2023/07/20 05:37:58;;;;;;;3.37;0.80;;;18.30;99.90;;;;;;5034916;28;20455;-86
2023/07/20 05:40:26;;;;;;;0.70;0.70;;;18.30;99.90;;;;;;5034709;28;20478;-85
2023/07/20 05:42:53;;;;;;;1.07;0.70;;;18.40;99.90;;;;;;5034579;28;20899;-85
2023/07/20 05:45:20;;;;;;;1.20;1.10;;;18.50;99.90;;;;;;5034533;28;20545;-86
2023/07/20 05:47:47;;;;;;;1.73;0.57;;;18.60;99.90;;;;;;5034754;28;20446;-86
2023/07/20 05:50:15;;;;;;;0.70;0.70;;;18.50;99.90;;;;;;5034736;28;20466;-85
2023/07/20 05:52:42;;;;;;;0.70;0.70;;;18.60;99.90;;;;;;5034579;28;20447;-85
2023/07/20 05:55:09;;;;;;;1.20;0.90;;;18.70;99.90;;;;;;5034570;28;20438;-85
2023/07/20 05:57:39;;;;;;;2.03;0.80;;;18.80;99.90;;;;;;5034627;28;20457;-86
2023/07/20 06:00:07;;;;;;;1.73;0.80;;;18.80;99.90;;;;;;5034711;28;20474;-85
2023/07/20 06:02:34;;;;;;;2.00;0.90;;;18.90;99.90;;;;;;5034508;28;20486;-85
2023/07/20 06:05:01;;;;;;;2.33;1.00;;;18.90;99.90;;;;;;5034392;28;20969;-86
2023/07/20 06:07:29;;;;;;;0.93;0.70;;;19.00;99.90;;;;;;5034690;28;20533;-85
2023/07/20 06:09:56;;;;;;;2.43;0.80;;;19.00;99.90;;;;;;5034342;28;20534;-86
2023/07/20 06:12:22;;;;;;;0.60;0.60;;;19.20;99.90;;;;;;5034117;28;20435;-86
2023/07/20 06:14:49;;;;;;;1.03;0.80;;;19.20;99.90;;;;;;5034006;28;20447;-85
2023/07/20 06:17:16;;;;;;;0.60;0.60;;;19.30;99.90;;;;;;5034006;28;20439;-85
2023/07/20 06:19:43;;;;;;;2.90;1.03;;;19.20;99.90;;;;;;5033470;28;20458;-85
2023/07/20 06:22:10;;;;;;;6.57;0.93;;;19.20;99.90;;;;;;5033963;28;20478;-85
2023/07/20 06:24:38;;;;;;;2.63;0.90;;;19.30;99.90;;;;;;5033859;28;20469;-85
2023/07/20 06:27:06;;;;;;;2.23;0.83;;;19.30;99.90;;;;;;5033831;28;20458;-85
2023/07/20 06:29:32;;;;;;;0.83;0.73;;;19.40;99.90;;;;;;5033881;28;20431;-85
2023/07/20 06:31:59;;;;;;;0.90;0.70;;;19.40;99.90;;;;;;5033730;28;20970;-85
2023/07/20 06:34:26;;;;;;;1.17;0.70;;;19.40;99.90;;;;;;5033897;28;20887;-85
2023/07/20 06:36:53;;;;;;;0.63;0.60;;;19.50;99.90;;;;;;5033800;28;20459;-85
2023/07/20 06:39:19;;;;;;;0.83;0.80;;;19.60;99.90;;;;;;5033537;28;20942;-84
2023/07/20 06:41:47;;;;;;;1.50;0.80;;;19.70;99.90;;;;;;5033445;28;20482;-85
2023/07/20 06:44:14;;;;;;;1.73;1.10;;;19.70;99.90;;;;;;5033374;28;20450;-85
2023/07/20 06:46:41;;;;;;;1.03;0.70;;;19.80;99.90;;;;;;5033400;28;21016;-86
2023/07/20 06:49:08;;;;;;;1.33;0.60;;;19.80;99.90;;;;;;5033729;28;20458;-85
2023/07/20 06:51:35;;;;;;;1.57;1.27;;;19.80;99.90;;;;;;5033616;28;20870;-85
2023/07/20 06:54:04;;;;;;;1.93;1.20;;;19.90;99.90;;;;;;5033275;28;20972;-85
2023/07/20 06:56:31;;;;;;;1.43;0.90;;;19.90;99.90;;;;;;5033615;28;20451;-86
2023/07/20 06:58:59;;;;;;;0.83;0.70;;;20.10;99.90;;;;;;5033484;28;20521;-85
2023/07/20 07:01:25;;;;;;;1.57;1.20;;;20.20;99.90;;;;;;5033408;28;20990;-85
2023/07/20 07:03:52;;;;;;;1.50;0.97;;;20.40;99.90;;;;;;5033533;28;20442;-85
2023/07/20 07:06:21;;;;;;;0.80;0.80;;;20.60;99.90;;;;;;5033689;28;20453;-85
2023/07/20 07:08:47;;;;;;;1.90;0.87;;;20.70;99.90;;;;;;5033197;28;20454;-85
2023/07/20 07:11:14;;;;;;;0.80;0.80;;;20.90;99.90;;;;;;5033605;28;20462;-85
2023/07/20 07:13:41;;;;;;;1.63;0.90;;;21.10;99.90;;;;;;5033382;28;20446;-85
2023/07/20 07:16:09;;;;;;;1.67;1.10;;;21.00;99.90;;;;;;5033067;28;20899;-84
2023/07/20 07:18:36;;;;;;;1.37;1.03;;;21.00;99.90;;;;;;5033378;28;20449;-86
2023/07/20 07:21:02;;;;;;;1.23;0.70;;;20.90;99.90;;;;;;5034740;28;20497;-85
2023/07/20 07:23:29;;;;;;;1.03;0.90;;;21.00;99.90;;;;;;5033749;28;20461;-86
2023/07/20 07:25:56;;;;;;;0.77;0.77;;;21.20;99.90;;;;;;5032912;28;20493;-85
2023/07/20 07:28:23;;;;;;;0.80;0.73;;;21.40;99.90;;;;;;5033284;28;20449;-84
2023/07/20 07:30:49;;;;;;;0.97;0.97;;;21.50;99.90;;;;;;5034847;28;20816;-85
2023/07/20 07:33:17;;;;;;;1.00;0.90;;;21.60;99.90;;;;;;5036867;28;20812;-85
2023/07/20 07:35:44;;;;;;;1.07;0.97;;;21.90;99.90;;;;;;5036985;28;20942;-86
2023/07/20 07:38:11;;;;;;;0.80;0.80;;;22.10;99.90;;;;;;5037288;28;20453;-85
2023/07/20 07:40:37;;;;;;;1.13;0.70;;;22.20;99.90;;;;;;5037103;28;20510;-85
2023/07/20 07:43:04;;;;;;;1.10;1.00;;;22.30;99.90;;;;;;5036796;28;20488;-85
2023/07/20 07:45:31;;;;;;;1.97;0.90;;;22.20;99.90;;;;;;5037355;28;20445;-87
2023/07/20 07:47:58;;;;;;;3.33;0.90;;;22.40;99.90;;;;;;5037212;28;20453;-85
2023/07/20 07:50:27;;;;;;;1.40;1.13;;;22.50;99.80;;;;;;5036888;28;20466;-85
2023/07/20 07:52:53;;;;;;;1.53;0.80;;;22.60;99.90;;;;;;5036930;28;20528;-86
2023/07/20 07:55:20;;;;;;;1.73;1.00;;;22.70;98.90;;;;;;5036513;28;20941;-86
2023/07/20 07:57:47;;;;;;;1.00;0.90;;;22.80;99.00;;;;;;5036472;28;20454;-86
2023/07/20 08:00:18;;;;;;;3.20;1.00;;;22.90;98.60;;;;;;5036970;28;20505;-86
2023/07/20 08:02:46;;;;;;;0.80;0.80;;;22.90;98.50;;;;;;5037051;28;20501;-86
2023/07/20 08:05:13;;;;;;;1.23;1.13;;;23.10;98.20;;;;;;5036563;28;20949;-85
2023/07/20 08:07:41;;;;;;;1.43;1.13;;;23.20;97.50;;;;;;5036708;28;20446;-85
2023/07/20 08:10:08;;;;;;;1.33;0.83;;;23.30;97.90;;;;;;5036380;28;20258;-85
2023/07/20 08:12:35;;;;;;;1.40;0.57;;;23.30;98.00;;;;;;5036440;28;20210;-86
2023/07/20 08:15:03;;;;;;;1.10;1.10;;;23.20;96.10;;;;;;5036363;28;20218;-86
2023/07/20 08:17:30;;;;;;;0.80;0.80;;;23.30;96.80;;;;;;5036535;28;20207;-86
2023/07/20 08:19:57;;;;;;;1.80;0.70;;;23.50;96.40;;;;;;5036101;28;20210;-85
2023/07/20 08:22:24;;;;;;;1.20;0.70;;;23.70;96.90;;;;;;5036987;28;20226;-85
2023/07/20 08:24:52;;;;;;;0.77;0.77;;;23.90;95.60;;;;;;5035943;28;20214;-85
2023/07/20 08:27:19;;;;;;;1.00;0.90;;;24.00;95.40;;;;;;5036217;28;20578;-85
2023/07/20 08:29:45;;;;;;;1.75;1.08;;;23.70;95.10;;;;;;5036114;28;20202;-86
2023/07/20 08:32:13;;;;;;;1.00;0.90;;;23.40;95.20;;;;;;5036243;28;20203;-86
2023/07/20 08:34:40;;;;;;;0.80;0.80;;;23.30;95.80;;;;;;5036213;28;20203;-85
2023/07/20 08:37:10;;;;;;;1.40;0.80;;;23.10;96.10;;;;;;5036393;28;20237;-85
2023/07/20 08:39:36;;;;;;;0.70;0.70;;;23.10;96.60;;;;;;5037371;28;20246;-85
2023/07/20 08:42:06;;;;;;;5.50;0.93;;;23.30;96.60;;;;;;5037530;28;20302;-84
2023/07/20 08:44:34;;;;;;;0.70;0.70;;;23.40;96.10;;;;;;5038644;28;20203;-85
2023/07/20 08:47:03;;;;;;;1.43;0.97;;;23.50;96.70;;;;;;5037793;28;20188;-86
2023/07/20 08:49:32;;;;;;;0.80;0.80;;;23.80;96.50;;;;;;5036696;28;20664;-85
2023/07/20 08:52:00;;;;;;;0.70;0.60;;;23.90;94.90;;;;;;5036281;28;20226;-85
2023/07/20 08:54:32;;;;;;;1.13;1.02;;;23.80;93.90;;;;;;5035887;28;20207;-85
2023/07/20 08:57:02;;;;;;;1.20;1.10;;;23.60;94.80;;;;;;5035953;28;20196;-85
2023/07/20 08:59:31;;;;;;;1.13;0.80;;;23.50;95.20;;;;;;5035843;28;20683;-85
2023/07/20 09:01:59;;;;;;;1.83;0.87;;;23.40;96.20;;;;;;5035414;28;20749;-86
2023/07/20 09:04:26;;;;;;;1.00;0.90;;;23.30;96.70;;;;;;5035940;28;20206;-85
2023/07/20 09:06:53;;;;;;;1.87;1.00;;;23.30;96.30;;;;;;5035940;28;20218;-86
2023/07/20 09:09:20;;;;;;;0.98;0.98;;;23.30;95.90;;;;;;5035637;28;20215;-86
2023/07/20 09:11:49;;;;;;;0.70;0.70;;;23.40;95.80;;;;;;5035576;28;20215;-85
2023/07/20 09:14:17;;;;;;;1.00;0.90;;;23.50;95.30;;;;;;5035581;28;20202;-85
2023/07/20 09:16:53;;;;;;;1.40;0.80;;;23.70;94.60;;;;;;5035472;28;20210;-85
2023/07/20 09:19:20;;;;;;;0.90;0.90;;;23.90;93.20;;;;;;5035753;28;20226;-85
2023/07/20 09:21:47;;;;;;;1.90;1.33;;;23.70;93.40;;;;;;5035306;28;20234;-85
2023/07/20 09:24:14;;;;;;;0.90;0.70;;;23.60;93.90;;;;;;5035143;28;20671;-86
2023/07/20 09:26:45;;;;;;;0.80;0.70;;;23.40;94.00;;;;;;5035212;28;20234;-85
2023/07/20 09:29:12;;;;;;;1.83;0.87;;;23.30;93.80;;;;;;5035147;28;20187;-85
2023/07/20 09:31:39;;;;;;;0.93;0.77;;;23.20;94.30;;;;;;5035007;28;20231;-85
2023/07/20 09:34:08;;;;;;;0.87;0.60;;;23.10;94.20;;;;;;5035026;28;20675;-85
2023/07/20 09:36:36;;;;;;;1.20;0.80;;;23.10;93.80;;;;;;5035257;28;20301;-85
2023/07/20 09:39:04;;;;;;;0.80;0.60;;;23.10;93.70;;;;;;5035363;28;20195;-85
2023/07/20 09:41:40;;;;;;;0.90;0.70;;;23.10;93.20;;;;;;5035119;28;20227;-86
2023/07/20 09:44:08;;;;;;;0.60;0.60;;;23.10;93.50;;;;;;5035326;28;20199;-85
2023/07/20 09:46:42;;;;;;;0.70;0.60;;;23.30;93.20;;;;;;5035103;28;20194;-85
2023/07/20 09:49:11;;;;;;;0.90;0.70;;;23.60;92.60;;;;;;5035215;28;20183;-86
2023/07/20 09:51:38;;;;;;;2.47;1.27;;;23.90;92.20;;;;;;5035011;28;20226;-85
2023/07/20 09:54:05;;;;;;;0.68;0.68;;;24.20;92.10;;;;;;5034072;28;20199;-85
2023/07/20 09:56:33;;;;;;;0.70;0.70;;;24.40;88.80;;;;;;5034685;28;20203;-86
2023/07/20 09:59:00;;;;;;;0.60;0.50;;;24.60;87.60;;;;;;5034614;28;20226;-85
2023/07/20 10:01:30;;;;;;;0.60;0.60;;;25.00;88.60;;;;;;5034323;28;20214;-85
2023/07/20 10:04:01;;;;;;;1.60;0.60;;;25.20;88.10;;;;;;5034362;28;20223;-85
2023/07/20 10:06:30;;;;;;;0.60;0.47;;;25.70;90.20;;;;;;5033058;28;20187;-86
2023/07/20 10:09:02;;;;;;;1.33;0.65;;;25.90;85.30;;;;;;5033631;28;20698;-85
2023/07/20 10:11:32;;;;;;;0.65;0.60;;;25.90;85.60;;;;;;5034706;28;20215;-85
2023/07/20 10:14:00;;;;;;;0.73;0.73;;;25.60;84.30;;;;;;5033401;28;20199;-86
2023/07/20 10:16:30;;;;;;;0.70;0.60;;;25.30;85.70;;;;;;5034225;28;20203;-86
2023/07/20 10:19:06;;;;;;;0.70;0.68;;;25.30;88.00;;;;;;5034394;28;20287;-86
2023/07/20 10:21:38;;;;;;;0.88;0.88;;;25.60;85.20;;;;;;5034521;28;20296;-85
2023/07/20 10:24:05;;;;;;;0.50;0.50;;;25.60;86.30;;;;;;5034515;28;20195;-86
2023/07/20 10:26:32;;;;;;;0.52;0.45;;;25.80;85.50;;;;;;5033447;28;20250;-84
2023/07/20 10:29:00;;;;;;;0.50;0.50;;;25.90;85.50;;;;;;5033406;28;20199;-84
2023/07/20 10:31:28;;;;;;;0.75;0.55;;;26.00;87.40;;;;;;5034082;28;20233;-82
2023/07/20 10:33:55;;;;;;;0.60;0.50;;;26.10;82.90;;;;;;5033805;28;20203;-82
2023/07/20 10:36:27;;;;;;;0.68;0.50;;;26.20;80.20;;;;;;5033483;28;20571;-81
2023/07/20 10:38:57;;;;;;;0.60;0.60;;;26.20;79.90;;;;;;5033851;28;20245;-85
2023/07/20 10:41:29;;;;;;;0.60;0.60;;;26.30;81.20;;;;;;5033948;28;20219;-84
2023/07/20 10:44:00;;;;;;;0.65;0.63;;;26.30;77.90;;;;;;5033561;28;20214;-84
2023/07/20 10:46:44;;;;;;;0.63;0.63;;;26.10;77.40;;;;;;5033720;28;20685;-85
2023/07/20 10:49:12;;;;;;;0.60;0.57;;;25.80;79.30;;;;;;5033619;28;20199;-83
2023/07/20 10:51:43;;;;;;;1.45;0.80;;;25.40;79.30;;;;;;5033432;28;20699;-83
2023/07/20 10:54:35;;;;;;;0.60;0.50;;;25.40;78.30;;;;;;5033644;28;20610;-84
2023/07/20 10:57:24;;;;;;;0.77;0.60;;;25.60;79.60;;;;;;5033373;28;20562;-83
2023/07/20 10:59:51;;;;;;;0.63;0.63;;;25.40;80.50;;;;;;5033468;28;20195;-84
2023/07/20 11:02:20;;;;;;;0.52;0.52;;;25.30;79.30;;;;;;5033485;28;20261;-83
2023/07/20 11:04:48;;;;;;;0.50;0.40;;;25.10;81.10;;;;;;5032897;28;20668;-83
2023/07/20 11:07:37;;;;;;;0.63;0.60;;;25.00;79.30;;;;;;5033430;28;20204;-83
2023/07/20 11:10:15;;;;;;;1.08;0.70;;;25.30;81.00;;;;;;5033302;28;20257;-83
2023/07/20 11:12:42;;;;;;;0.50;0.50;;;25.70;79.60;;;;;;5033062;28;20188;-83
2023/07/20 11:15:09;;;;;;;0.50;0.50;;;25.90;77.20;;;;;;5033214;28;20218;-84
2023/07/20 11:17:38;;;;;;;0.60;0.52;;;26.20;76.00;;;;;;5033021;28;20206;-83
2023/07/20 11:20:05;;;;;;;0.40;0.40;;;26.40;74.30;;;;;;5033104;28;20204;-83
2023/07/20 11:22:32;;;;;;;1.13;0.50;;;26.30;78.00;;;;;;5032919;28;20709;-83
2023/07/20 11:24:59;;;;;;;0.50;0.40;;;26.00;75.80;;;;;;5033078;28;20246;-83
2023/07/20 11:27:28;;;;;;;1.25;0.60;;;25.90;76.60;;;;;;5033224;28;20188;-83
2023/07/20 11:29:54;;;;;;;0.50;0.50;;;25.80;76.30;;;;;;5033343;28;20242;-84
2023/07/20 11:32:22;;;;;;;1.58;0.57;;;25.70;76.30;;;;;;5032995;28;20187;-84
2023/07/20 11:34:49;;;;;;;0.93;0.70;;;25.60;77.60;;;;;;5032941;28;20211;-84
2023/07/20 11:37:16;;;;;;;0.60;0.55;;;25.50;76.10;;;;;;5033247;28;20294;-85
2023/07/20 11:39:43;;;;;;;0.55;0.55;;;25.60;76.50;;;;;;5033135;28;20208;-84
2023/07/20 11:42:10;;;;;;;0.50;0.50;;;25.70;77.00;;;;;;5032770;28;20223;-84
2023/07/20 11:44:39;;;;;;;0.50;0.50;;;25.80;74.60;;;;;;5033036;28;20198;-84
2023/07/20 11:47:08;;;;;;;1.13;0.80;;;25.90;74.10;;;;;;5032783;28;20196;-84
2023/07/20 11:49:37;;;;;;;0.60;0.60;;;25.80;74.50;;;;;;5032734;28;20196;-84
2023/07/20 11:52:06;;;;;;;0.70;0.50;;;25.70;75.10;;;;;;5033057;28;20223;-84
2023/07/20 11:54:33;;;;;;;0.63;0.60;;;25.60;73.80;;;;;;5033176;28;20199;-84
2023/07/20 11:57:02;;;;;;;0.65;0.60;;;25.70;74.80;;;;;;5032880;28;20200;-84
2023/07/20 11:59:29;;;;;;;3.72;0.73;;;25.80;74.10;;;;;;5032942;28;20207;-84
2023/07/20 12:01:57;;;;;;;1.35;0.70;;;26.00;73.20;;;;;;5032922;28;20223;-84
2023/07/20 12:04:24;;;;;;;0.50;0.50;;;26.00;74.10;;;;;;5033095;28;20227;-84
2023/07/20 12:06:50;;;;;;;0.60;0.60;;;25.90;74.80;;;;;;5033305;28;20212;-84
2023/07/20 12:09:18;;;;;;;0.80;0.40;;;25.90;74.40;;;;;;5032861;28;20214;-83
2023/07/20 12:11:46;;;;;;;0.90;0.60;;;25.80;72.60;;;;;;5032663;28;20719;-84
2023/07/20 12:14:12;;;;;;;2.17;0.90;;;25.80;72.00;;;;;;5032786;28;20612;-84
2023/07/20 12:16:39;;;;;;;1.05;0.77;;;25.60;71.50;;;;;;5032769;28;20204;-84
2023/07/20 12:19:09;;;;;;;0.50;0.50;;;25.40;73.00;;;;;;5036346;28;20206;-84
2023/07/20 12:21:37;;;;;;;0.80;0.80;;;25.40;73.90;;;;;;5036011;28;20230;-84
2023/07/20 12:24:05;;;;;;;0.52;0.52;;;25.50;74.00;;;;;;5036341;28;20249;-84
2023/07/20 12:26:32;;;;;;;0.73;0.60;;;25.60;72.10;;;;;;5035793;28;20243;-84
2023/07/20 12:28:59;;;;;;;0.60;0.60;;;25.80;73.80;;;;;;5036133;28;20230;-84
2023/07/20 12:31:27;;;;;;;0.88;0.88;;;25.80;74.70;;;;;;5036178;28;20222;-83
2023/07/20 12:33:55;;;;;;;0.88;0.60;;;25.90;74.10;;;;;;5035948;28;20212;-83
2023/07/20 12:36:23;;;;;;;0.65;0.65;;;25.90;71.70;;;;;;5036119;28;20210;-84
2023/07/20 12:38:50;;;;;;;0.95;0.80;;;25.80;71.90;;;;;;5036080;28;20215;-84
2023/07/20 12:41:18;;;;;;;3.00;0.60;;;25.80;71.10;;;;;;5035560;28;20823;-84
2023/07/20 12:43:45;;;;;;;1.20;1.08;;;25.80;72.50;;;;;;5035704;28;20227;-84
2023/07/20 12:46:14;;;;;;;1.05;0.70;;;25.70;72.20;;;;;;5036055;28;20540;-84
2023/07/20 12:48:42;;;;;;;0.70;0.60;;;25.60;72.00;;;;;;5036041;28;20210;-83
2023/07/20 12:51:09;;;;;;;0.50;0.50;;;25.40;69.20;;;;;;5035914;28;20219;-84
2023/07/20 12:53:37;;;;;;;0.82;0.60;;;25.30;69.80;;;;;;5035978;28;20200;-84